sensor_id;sensor_type;location;lat;lon;timestamp;temperature;humidity
15113;DHT22;7657;50.140;7.076;2023-06-19T00:01:13;22.80;99.90
15113;DHT22;7657;50.140;7.076;2023-06-19T00:03:40;22.70;99.90
15113;DHT22;7657;50.140;7.076;2023-06-19T00:06:07;22.70;99.90
15113;DHT22;7657;50.140;7.076;2023-06-19T00:08:34;22.70;99.90
15113;DHT22;7657;50.140;7.076;2023-06-19T00:11:02;22.70;99.90
15113;DHT22;7657;50.140;7.076;2023-06-19T00:13:28;22.60;99.90
15113;DHT22;7657;50.140;7.076;2023-06-19T00:15:55;22.60;99.90
15113;DHT22;7657;50.140;7.076;2023-06-19T00:18:27;22.50;99.90
15113;DHT22;7657;50.140;7.076;2023-06-19T00:20:54;22.50;99.90
15113;DHT22;7657;50.140;7.076;2023-06-19T00:23:21;22.50;99.90
15113;DHT22;7657;50.140;7.076;2023-06-19T00:25:48;22.60;99.90
15113;DHT22;7657;50.140;7.076;2023-06-19T00:28:15;22.50;99.90
15113;DHT22;7657;50.140;7.076;2023-06-19T00:30:45;22.50;99.90
15113;DHT22;7657;50.140;7.076;2023-06-19T00:33:12;22.40;99.90
15113;DHT22;7657;50.140;7.076;2023-06-19T00:35:40;22.40;99.90
15113;DHT22;7657;50.140;7.076;2023-06-19T00:38:08;22.50;99.90
15113;DHT22;7657;50.140;7.076;2023-06-19T00:40:35;22.40;99.90
15113;DHT22;7657;50.140;7.076;2023-06-19T00:43:02;22.40;99.90
15113;DHT22;7657;50.140;7.076;2023-06-19T00:45:29;22.40;99.90
15113;DHT22;7657;50.140;7.076;2023-06-19T00:47:59;22.30;99.90
15113;DHT22;7657;50.140;7.076;2023-06-19T00:50:27;22.30;99.90
15113;DHT22;7657;50.140;7.076;2023-06-19T00:52:56;22.30;99.90
15113;DHT22;7657;50.140;7.076;2023-06-19T00:55:26;22.20;99.90
15113;DHT22;7657;50.140;7.076;2023-06-19T00:57:54;22.20;99.90
15113;DHT22;7657;50.140;7.076;2023-06-19T01:00:21;22.10;99.90
15113;DHT22;7657;50.140;7.076;2023-06-19T01:02:48;21.90;99.90
15113;DHT22;7657;50.140;7.076;2023-06-19T01:05:16;21.80;99.90
15113;DHT22;7657;50.140;7.076;2023-06-19T01:07:47;21.80;99.90
15113;DHT22;7657;50.140;7.076;2023-06-19T01:10:20;21.70;99.90
15113;DHT22;7657;50.140;7.076;2023-06-19T01:12:52;21.70;99.90
15113;DHT22;7657;50.140;7.076;2023-06-19T01:15:20;21.70;99.90
15113;DHT22;7657;50.140;7.076;2023-06-19T01:17:49;21.60;99.90
15113;DHT22;7657;50.140;7.076;2023-06-19T01:20:16;21.60;99.90
15113;DHT22;7657;50.140;7.076;2023-06-19T01:22:45;21.60;99.90
15113;DHT22;7657;50.140;7.076;2023-06-19T01:25:12;21.60;99.90
15113;DHT22;7657;50.140;7.076;2023-06-19T01:27:40;21.60;99.90
15113;DHT22;7657;50.140;7.076;2023-06-19T01:30:09;21.50;99.90
15113;DHT22;7657;50.140;7.076;2023-06-19T01:32:41;21.50;99.90
15113;DHT22;7657;50.140;7.076;2023-06-19T01:35:11;21.50;99.90
15113;DHT22;7657;50.140;7.076;2023-06-19T01:37:40;21.40;99.90
15113;DHT22;7657;50.140;7.076;2023-06-19T01:40:10;21.30;99.90
15113;DHT22;7657;50.140;7.076;2023-06-19T01:42:39;21.10;99.90
15113;DHT22;7657;50.140;7.076;2023-06-19T01:45:07;21.20;99.90
15113;DHT22;7657;50.140;7.076;2023-06-19T01:47:34;21.20;99.90
15113;DHT22;7657;50.140;7.076;2023-06-19T01:50:01;21.10;99.90
15113;DHT22;7657;50.140;7.076;2023-06-19T01:52:28;21.10;99.90
15113;DHT22;7657;50.140;7.076;2023-06-19T01:54:55;21.10;99.90
15113;DHT22;7657;50.140;7.076;2023-06-19T01:57:24;21.10;99.90
15113;DHT22;7657;50.140;7.076;2023-06-19T01:59:51;21.00;99.90
15113;DHT22;7657;50.140;7.076;2023-06-19T02:02:18;20.80;99.90
15113;DHT22;7657;50.140;7.076;2023-06-19T02:04:45;20.90;99.90
15113;DHT22;7657;50.140;7.076;2023-06-19T02:07:12;20.80;99.90
15113;DHT22;7657;50.140;7.076;2023-06-19T02:09:38;20.90;99.90
15113;DHT22;7657;50.140;7.076;2023-06-19T02:12:07;20.90;99.90
15113;DHT22;7657;50.140;7.076;2023-06-19T02:14:36;20.80;99.90
15113;DHT22;7657;50.140;7.076;2023-06-19T02:17:02;20.80;99.90
15113;DHT22;7657;50.140;7.076;2023-06-19T02:19:29;20.80;99.90
15113;DHT22;7657;50.140;7.076;2023-06-19T02:21:56;20.80;99.90
15113;DHT22;7657;50.140;7.076;2023-06-19T02:24:23;20.80;99.90
15113;DHT22;7657;50.140;7.076;2023-06-19T02:26:50;20.70;99.90
15113;DHT22;7657;50.140;7.076;2023-06-19T02:29:17;20.70;99.90
15113;DHT22;7657;50.140;7.076;2023-06-19T02:31:45;20.60;99.90
15113;DHT22;7657;50.140;7.076;2023-06-19T02:34:12;20.60;99.90
15113;DHT22;7657;50.140;7.076;2023-06-19T02:36:39;20.60;99.90
15113;DHT22;7657;50.140;7.076;2023-06-19T02:39:06;20.60;99.90
15113;DHT22;7657;50.140;7.076;2023-06-19T02:41:33;20.60;99.90
15113;DHT22;7657;50.140;7.076;2023-06-19T02:44:00;20.60;99.90
15113;DHT22;7657;50.140;7.076;2023-06-19T02:46:27;20.60;99.90
15113;DHT22;7657;50.140;7.076;2023-06-19T02:48:55;20.50;99.90
15113;DHT22;7657;50.140;7.076;2023-06-19T02:51:22;20.40;99.90
15113;DHT22;7657;50.140;7.076;2023-06-19T02:53:49;20.40;99.90
15113;DHT22;7657;50.140;7.076;2023-06-19T02:56:16;20.30;99.90
15113;DHT22;7657;50.140;7.076;2023-06-19T02:58:43;20.30;99.90
15113;DHT22;7657;50.140;7.076;2023-06-19T03:01:10;20.30;99.90
15113;DHT22;7657;50.140;7.076;2023-06-19T03:03:38;20.20;99.90
15113;DHT22;7657;50.140;7.076;2023-06-19T03:06:08;20.10;99.90
15113;DHT22;7657;50.140;7.076;2023-06-19T03:08:35;20.10;99.90
15113;DHT22;7657;50.140;7.076;2023-06-19T03:11:02;20.10;99.90
15113;DHT22;7657;50.140;7.076;2023-06-19T03:13:35;20.10;99.90
15113;DHT22;7657;50.140;7.076;2023-06-19T03:16:02;20.10;99.90
15113;DHT22;7657;50.140;7.076;2023-06-19T03:18:29;20.10;99.90
15113;DHT22;7657;50.140;7.076;2023-06-19T03:20:56;20.00;99.90
15113;DHT22;7657;50.140;7.076;2023-06-19T03:23:24;20.00;99.90
15113;DHT22;7657;50.140;7.076;2023-06-19T03:25:51;20.00;99.90
15113;DHT22;7657;50.140;7.076;2023-06-19T03:28:18;20.00;99.90
15113;DHT22;7657;50.140;7.076;2023-06-19T03:30:45;20.00;99.90
15113;DHT22;7657;50.140;7.076;2023-06-19T03:33:11;20.00;99.90
15113;DHT22;7657;50.140;7.076;2023-06-19T03:35:38;19.80;99.90
15113;DHT22;7657;50.140;7.076;2023-06-19T03:38:06;19.80;99.90
15113;DHT22;7657;50.140;7.076;2023-06-19T03:40:34;19.70;99.90
15113;DHT22;7657;50.140;7.076;2023-06-19T03:43:01;19.70;99.90
15113;DHT22;7657;50.140;7.076;2023-06-19T03:45:28;19.70;99.90
15113;DHT22;7657;50.140;7.076;2023-06-19T03:47:55;19.80;99.90
15113;DHT22;7657;50.140;7.076;2023-06-19T03:50:22;19.80;99.90
15113;DHT22;7657;50.140;7.076;2023-06-19T03:52:48;19.60;99.90
15113;DHT22;7657;50.140;7.076;2023-06-19T03:55:15;19.70;99.90
15113;DHT22;7657;50.140;7.076;2023-06-19T03:57:44;19.60;99.90
15113;DHT22;7657;50.140;7.076;2023-06-19T04:00:11;19.70;99.90
15113;DHT22;7657;50.140;7.076;2023-06-19T04:02:38;19.60;99.90
15113;DHT22;7657;50.140;7.076;2023-06-19T04:05:06;19.70;99.90
15113;DHT22;7657;50.140;7.076;2023-06-19T04:07:33;19.70;99.90
15113;DHT22;7657;50.140;7.076;2023-06-19T04:09:59;19.80;99.90
15113;DHT22;7657;50.140;7.076;2023-06-19T04:12:26;19.80;99.90
15113;DHT22;7657;50.140;7.076;2023-06-19T04:14:54;19.70;99.90
15113;DHT22;7657;50.140;7.076;2023-06-19T04:17:21;19.70;99.90
15113;DHT22;7657;50.140;7.076;2023-06-19T04:19:48;19.80;99.90
15113;DHT22;7657;50.140;7.076;2023-06-19T04:22:15;19.80;99.90
15113;DHT22;7657;50.140;7.076;2023-06-19T04:24:42;19.60;99.90
15113;DHT22;7657;50.140;7.076;2023-06-19T04:27:09;19.60;99.90
15113;DHT22;7657;50.140;7.076;2023-06-19T04:29:37;19.70;99.90
15113;DHT22;7657;50.140;7.076;2023-06-19T04:32:06;19.70;99.90
15113;DHT22;7657;50.140;7.076;2023-06-19T04:34:37;19.70;99.90
15113;DHT22;7657;50.140;7.076;2023-06-19T04:37:05;19.60;99.90
15113;DHT22;7657;50.140;7.076;2023-06-19T04:39:31;19.60;99.90
15113;DHT22;7657;50.140;7.076;2023-06-19T04:41:59;19.50;99.90
15113;DHT22;7657;50.140;7.076;2023-06-19T04:44:27;19.50;99.90
15113;DHT22;7657;50.140;7.076;2023-06-19T04:46:55;19.60;99.90
15113;DHT22;7657;50.140;7.076;2023-06-19T04:49:28;19.60;99.90
15113;DHT22;7657;50.140;7.076;2023-06-19T04:51:56;19.60;99.90
15113;DHT22;7657;50.140;7.076;2023-06-19T04:54:24;19.40;99.90
15113;DHT22;7657;50.140;7.076;2023-06-19T04:56:51;19.30;99.90
15113;DHT22;7657;50.140;7.076;2023-06-19T04:59:18;19.40;99.90
15113;DHT22;7657;50.140;7.076;2023-06-19T05:01:45;19.40;99.90
15113;DHT22;7657;50.140;7.076;2023-06-19T05:04:12;19.20;99.90
15113;DHT22;7657;50.140;7.076;2023-06-19T05:06:41;19.20;99.90
15113;DHT22;7657;50.140;7.076;2023-06-19T05:09:08;19.10;99.90
15113;DHT22;7657;50.140;7.076;2023-06-19T05:11:35;19.20;99.90
15113;DHT22;7657;50.140;7.076;2023-06-19T05:14:02;19.20;99.90
15113;DHT22;7657;50.140;7.076;2023-06-19T05:16:29;19.20;99.90
15113;DHT22;7657;50.140;7.076;2023-06-19T05:18:56;19.10;99.90
15113;DHT22;7657;50.140;7.076;2023-06-19T05:21:22;19.10;99.90
15113;DHT22;7657;50.140;7.076;2023-06-19T05:23:51;19.10;99.90
15113;DHT22;7657;50.140;7.076;2023-06-19T05:26:18;19.20;99.90
15113;DHT22;7657;50.140;7.076;2023-06-19T05:28:45;19.10;99.90
15113;DHT22;7657;50.140;7.076;2023-06-19T05:31:12;19.10;99.90
15113;DHT22;7657;50.140;7.076;2023-06-19T05:33:40;19.10;99.90
15113;DHT22;7657;50.140;7.076;2023-06-19T05:36:07;19.20;99.90
15113;DHT22;7657;50.140;7.076;2023-06-19T05:38:34;19.20;99.90
15113;DHT22;7657;50.140;7.076;2023-06-19T05:41:03;19.20;99.90
15113;DHT22;7657;50.140;7.076;2023-06-19T05:43:30;19.40;99.90
15113;DHT22;7657;50.140;7.076;2023-06-19T05:45:57;19.30;99.90
15113;DHT22;7657;50.140;7.076;2023-06-19T05:48:25;19.40;99.90
15113;DHT22;7657;50.140;7.076;2023-06-19T05:50:52;19.40;99.90
15113;DHT22;7657;50.140;7.076;2023-06-19T05:53:18;19.40;99.90
15113;DHT22;7657;50.140;7.076;2023-06-19T05:55:45;19.40;99.90
15113;DHT22;7657;50.140;7.076;2023-06-19T05:58:14;19.40;99.90
15113;DHT22;7657;50.140;7.076;2023-06-19T06:00:40;19.50;99.90
15113;DHT22;7657;50.140;7.076;2023-06-19T06:03:07;19.60;99.90
15113;DHT22;7657;50.140;7.076;2023-06-19T06:05:34;19.50;99.90
15113;DHT22;7657;50.140;7.076;2023-06-19T06:08:02;19.50;99.90
15113;DHT22;7657;50.140;7.076;2023-06-19T06:10:29;19.50;99.90
15113;DHT22;7657;50.140;7.076;2023-06-19T06:12:56;19.50;99.90
15113;DHT22;7657;50.140;7.076;2023-06-19T06:15:24;19.60;99.90
15113;DHT22;7657;50.140;7.076;2023-06-19T06:17:51;19.50;99.90
15113;DHT22;7657;50.140;7.076;2023-06-19T06:20:18;19.50;99.90
15113;DHT22;7657;50.140;7.076;2023-06-19T06:22:45;19.50;99.90
15113;DHT22;7657;50.140;7.076;2023-06-19T06:25:11;19.60;99.90
15113;DHT22;7657;50.140;7.076;2023-06-19T06:27:38;19.60;99.90
15113;DHT22;7657;50.140;7.076;2023-06-19T06:30:06;19.60;99.90
15113;DHT22;7657;50.140;7.076;2023-06-19T06:32:34;19.60;99.90
15113;DHT22;7657;50.140;7.076;2023-06-19T06:35:01;19.60;99.90
15113;DHT22;7657;50.140;7.076;2023-06-19T06:37:28;19.60;99.90
15113;DHT22;7657;50.140;7.076;2023-06-19T06:39:55;19.60;99.90
15113;DHT22;7657;50.140;7.076;2023-06-19T06:42:22;19.70;99.90
15113;DHT22;7657;50.140;7.076;2023-06-19T06:44:49;19.70;99.90
15113;DHT22;7657;50.140;7.076;2023-06-19T06:47:16;19.80;99.90
15113;DHT22;7657;50.140;7.076;2023-06-19T06:49:44;19.70;99.90
15113;DHT22;7657;50.140;7.076;2023-06-19T06:52:11;19.80;99.90
15113;DHT22;7657;50.140;7.076;2023-06-19T06:54:38;19.70;99.90
15113;DHT22;7657;50.140;7.076;2023-06-19T06:57:05;19.70;99.90
15113;DHT22;7657;50.140;7.076;2023-06-19T06:59:32;19.80;99.90
15113;DHT22;7657;50.140;7.076;2023-06-19T07:01:59;20.00;99.90
15113;DHT22;7657;50.140;7.076;2023-06-19T07:04:26;20.10;99.90
15113;DHT22;7657;50.140;7.076;2023-06-19T07:06:54;20.20;99.90
15113;DHT22;7657;50.140;7.076;2023-06-19T07:09:21;20.20;99.90
15113;DHT22;7657;50.140;7.076;2023-06-19T07:11:48;20.20;99.90
15113;DHT22;7657;50.140;7.076;2023-06-19T07:14:15;20.30;99.90
15113;DHT22;7657;50.140;7.076;2023-06-19T07:16:43;20.30;99.90
15113;DHT22;7657;50.140;7.076;2023-06-19T07:19:10;20.40;99.90
15113;DHT22;7657;50.140;7.076;2023-06-19T07:21:37;20.30;99.90
15113;DHT22;7657;50.140;7.076;2023-06-19T07:24:06;20.30;99.90
15113;DHT22;7657;50.140;7.076;2023-06-19T07:26:35;20.20;99.90
15113;DHT22;7657;50.140;7.076;2023-06-19T07:29:02;20.20;99.90
15113;DHT22;7657;50.140;7.076;2023-06-19T07:31:29;20.40;99.90
15113;DHT22;7657;50.140;7.076;2023-06-19T07:33:55;20.50;99.90
15113;DHT22;7657;50.140;7.076;2023-06-19T07:36:22;20.50;99.90
15113;DHT22;7657;50.140;7.076;2023-06-19T07:38:49;20.50;99.90
15113;DHT22;7657;50.140;7.076;2023-06-19T07:41:17;20.60;99.90
15113;DHT22;7657;50.140;7.076;2023-06-19T07:43:44;20.60;99.90
15113;DHT22;7657;50.140;7.076;2023-06-19T07:46:11;20.60;99.90
15113;DHT22;7657;50.140;7.076;2023-06-19T07:48:38;20.60;99.90
15113;DHT22;7657;50.140;7.076;2023-06-19T07:51:05;20.60;99.90
15113;DHT22;7657;50.140;7.076;2023-06-19T07:53:32;20.60;99.90
15113;DHT22;7657;50.140;7.076;2023-06-19T07:55:59;20.70;99.90
15113;DHT22;7657;50.140;7.076;2023-06-19T07:58:27;20.70;99.90
15113;DHT22;7657;50.140;7.076;2023-06-19T08:00:55;20.80;99.90
15113;DHT22;7657;50.140;7.076;2023-06-19T08:03:22;21.00;99.90
15113;DHT22;7657;50.140;7.076;2023-06-19T08:05:49;21.00;99.90
15113;DHT22;7657;50.140;7.076;2023-06-19T08:08:16;21.20;99.90
15113;DHT22;7657;50.140;7.076;2023-06-19T08:10:43;21.20;99.90
15113;DHT22;7657;50.140;7.076;2023-06-19T08:13:10;21.20;99.90
15113;DHT22;7657;50.140;7.076;2023-06-19T08:15:39;21.40;99.90
15113;DHT22;7657;50.140;7.076;2023-06-19T08:18:06;21.40;99.90
15113;DHT22;7657;50.140;7.076;2023-06-19T08:20:33;21.50;99.90
15113;DHT22;7657;50.140;7.076;2023-06-19T08:22:59;21.50;99.90
15113;DHT22;7657;50.140;7.076;2023-06-19T08:25:26;21.50;99.90
15113;DHT22;7657;50.140;7.076;2023-06-19T08:27:53;21.40;99.90
15113;DHT22;7657;50.140;7.076;2023-06-19T08:30:20;21.50;99.90
15113;DHT22;7657;50.140;7.076;2023-06-19T08:32:48;21.60;99.90
15113;DHT22;7657;50.140;7.076;2023-06-19T08:35:15;21.70;99.90
15113;DHT22;7657;50.140;7.076;2023-06-19T08:37:42;21.80;99.90
15113;DHT22;7657;50.140;7.076;2023-06-19T08:40:11;21.80;99.90
15113;DHT22;7657;50.140;7.076;2023-06-19T08:42:38;21.90;99.90
15113;DHT22;7657;50.140;7.076;2023-06-19T08:45:06;21.90;99.90
15113;DHT22;7657;50.140;7.076;2023-06-19T08:47:34;21.80;99.90
15113;DHT22;7657;50.140;7.076;2023-06-19T08:50:02;21.90;99.90
15113;DHT22;7657;50.140;7.076;2023-06-19T08:52:29;21.90;99.90
15113;DHT22;7657;50.140;7.076;2023-06-19T08:54:56;21.90;99.90
15113;DHT22;7657;50.140;7.076;2023-06-19T08:57:33;22.10;99.90
15113;DHT22;7657;50.140;7.076;2023-06-19T09:00:00;22.20;99.90
15113;DHT22;7657;50.140;7.076;2023-06-19T09:02:40;22.10;99.90
15113;DHT22;7657;50.140;7.076;2023-06-19T09:05:16;22.10;99.90
15113;DHT22;7657;50.140;7.076;2023-06-19T09:07:44;22.30;99.90
15113;DHT22;7657;50.140;7.076;2023-06-19T09:10:14;22.40;99.90
15113;DHT22;7657;50.140;7.076;2023-06-19T09:12:42;22.50;99.90
15113;DHT22;7657;50.140;7.076;2023-06-19T09:15:12;22.60;99.90
15113;DHT22;7657;50.140;7.076;2023-06-19T09:17:39;22.60;99.90
15113;DHT22;7657;50.140;7.076;2023-06-19T09:20:07;22.70;99.90
15113;DHT22;7657;50.140;7.076;2023-06-19T09:22:38;22.60;99.90
15113;DHT22;7657;50.140;7.076;2023-06-19T09:25:07;22.70;99.90
15113;DHT22;7657;50.140;7.076;2023-06-19T09:27:35;22.80;99.90
15113;DHT22;7657;50.140;7.076;2023-06-19T09:30:05;22.80;99.90
15113;DHT22;7657;50.140;7.076;2023-06-19T09:32:34;22.70;99.90
15113;DHT22;7657;50.140;7.076;2023-06-19T09:35:01;22.70;99.90
15113;DHT22;7657;50.140;7.076;2023-06-19T09:37:29;22.70;99.90
15113;DHT22;7657;50.140;7.076;2023-06-19T09:39:59;22.60;99.90
15113;DHT22;7657;50.140;7.076;2023-06-19T09:42:27;22.60;99.90
15113;DHT22;7657;50.140;7.076;2023-06-19T09:45:00;22.60;99.90
15113;DHT22;7657;50.140;7.076;2023-06-19T09:47:31;22.70;99.90
15113;DHT22;7657;50.140;7.076;2023-06-19T09:49:59;22.70;99.90
15113;DHT22;7657;50.140;7.076;2023-06-19T09:52:28;22.80;99.90
15113;DHT22;7657;50.140;7.076;2023-06-19T09:54:55;22.80;99.90
15113;DHT22;7657;50.140;7.076;2023-06-19T09:57:24;22.60;99.90
15113;DHT22;7657;50.140;7.076;2023-06-19T09:59:53;22.60;99.90
15113;DHT22;7657;50.140;7.076;2023-06-19T10:02:22;22.70;99.90
15113;DHT22;7657;50.140;7.076;2023-06-19T10:04:51;22.70;99.90
15113;DHT22;7657;50.140;7.076;2023-06-19T10:07:19;22.60;99.90
15113;DHT22;7657;50.140;7.076;2023-06-19T10:10:00;22.60;99.90
15113;DHT22;7657;50.140;7.076;2023-06-19T10:12:36;22.60;99.90
15113;DHT22;7657;50.140;7.076;2023-06-19T10:15:15;22.50;99.90
15113;DHT22;7657;50.140;7.076;2023-06-19T10:17:45;22.50;99.90
15113;DHT22;7657;50.140;7.076;2023-06-19T10:20:24;22.40;99.90
15113;DHT22;7657;50.140;7.076;2023-06-19T10:22:52;22.50;99.90
15113;DHT22;7657;50.140;7.076;2023-06-19T10:25:22;22.50;99.90
15113;DHT22;7657;50.140;7.076;2023-06-19T10:27:51;22.50;99.90
15113;DHT22;7657;50.140;7.076;2023-06-19T10:30:20;22.60;99.90
15113;DHT22;7657;50.140;7.076;2023-06-19T10:32:47;22.70;99.90
15113;DHT22;7657;50.140;7.076;2023-06-19T10:35:16;22.80;99.90
15113;DHT22;7657;50.140;7.076;2023-06-19T10:37:47;22.90;99.90
15113;DHT22;7657;50.140;7.076;2023-06-19T10:40:15;23.00;99.90
15113;DHT22;7657;50.140;7.076;2023-06-19T10:42:43;23.10;99.90
15113;DHT22;7657;50.140;7.076;2023-06-19T10:45:13;23.10;99.90
15113;DHT22;7657;50.140;7.076;2023-06-19T10:47:42;23.10;99.90
15113;DHT22;7657;50.140;7.076;2023-06-19T10:50:10;23.20;99.90
15113;DHT22;7657;50.140;7.076;2023-06-19T10:52:40;23.20;99.90
15113;DHT22;7657;50.140;7.076;2023-06-19T10:55:09;23.30;99.90
15113;DHT22;7657;50.140;7.076;2023-06-19T10:57:36;23.30;99.90
15113;DHT22;7657;50.140;7.076;2023-06-19T11:00:05;23.30;99.90
15113;DHT22;7657;50.140;7.076;2023-06-19T11:02:39;23.50;99.90
15113;DHT22;7657;50.140;7.076;2023-06-19T11:05:09;23.50;99.90
15113;DHT22;7657;50.140;7.076;2023-06-19T11:07:36;23.50;99.90
15113;DHT22;7657;50.140;7.076;2023-06-19T11:10:03;23.40;99.90
15113;DHT22;7657;50.140;7.076;2023-06-19T11:12:31;23.50;99.90
15113;DHT22;7657;50.140;7.076;2023-06-19T11:15:02;23.60;99.90
15113;DHT22;7657;50.140;7.076;2023-06-19T11:17:30;23.70;99.90
15113;DHT22;7657;50.140;7.076;2023-06-19T11:19:58;23.80;99.90
15113;DHT22;7657;50.140;7.076;2023-06-19T11:22:36;23.80;99.90
15113;DHT22;7657;50.140;7.076;2023-06-19T11:25:04;23.90;99.90
15113;DHT22;7657;50.140;7.076;2023-06-19T11:27:31;23.90;99.90
15113;DHT22;7657;50.140;7.076;2023-06-19T11:29:59;24.00;99.90
15113;DHT22;7657;50.140;7.076;2023-06-19T11:32:31;24.20;99.90
15113;DHT22;7657;50.140;7.076;2023-06-19T11:35:05;24.30;99.90
15113;DHT22;7657;50.140;7.076;2023-06-19T11:37:33;24.20;99.90
15113;DHT22;7657;50.140;7.076;2023-06-19T11:40:01;24.30;99.90
15113;DHT22;7657;50.140;7.076;2023-06-19T11:42:30;24.40;99.90
15113;DHT22;7657;50.140;7.076;2023-06-19T11:45:00;24.30;99.90
15113;DHT22;7657;50.140;7.076;2023-06-19T11:47:30;24.20;99.90
15113;DHT22;7657;50.140;7.076;2023-06-19T11:49:58;24.30;99.90
15113;DHT22;7657;50.140;7.076;2023-06-19T11:52:25;24.40;99.90
15113;DHT22;7657;50.140;7.076;2023-06-19T11:54:52;24.40;99.90
15113;DHT22;7657;50.140;7.076;2023-06-19T11:57:19;24.60;99.90
15113;DHT22;7657;50.140;7.076;2023-06-19T11:59:46;24.70;99.90
15113;DHT22;7657;50.140;7.076;2023-06-19T12:02:13;24.80;99.90
15113;DHT22;7657;50.140;7.076;2023-06-19T12:04:40;24.90;99.90
15113;DHT22;7657;50.140;7.076;2023-06-19T12:07:08;24.90;99.90
15113;DHT22;7657;50.140;7.076;2023-06-19T12:09:37;25.00;99.90
15113;DHT22;7657;50.140;7.076;2023-06-19T12:12:05;25.00;99.90
15113;DHT22;7657;50.140;7.076;2023-06-19T12:14:32;25.10;99.90
15113;DHT22;7657;50.140;7.076;2023-06-19T12:16:59;25.10;99.90
15113;DHT22;7657;50.140;7.076;2023-06-19T12:19:26;25.10;99.90
15113;DHT22;7657;50.140;7.076;2023-06-19T12:21:54;25.20;99.90
15113;DHT22;7657;50.140;7.076;2023-06-19T12:24:22;25.30;99.90
15113;DHT22;7657;50.140;7.076;2023-06-19T12:26:49;25.50;99.90
15113;DHT22;7657;50.140;7.076;2023-06-19T12:29:16;25.60;99.90
15113;DHT22;7657;50.140;7.076;2023-06-19T12:31:43;25.80;99.90
15113;DHT22;7657;50.140;7.076;2023-06-19T12:34:10;25.90;99.90
15113;DHT22;7657;50.140;7.076;2023-06-19T12:36:37;26.10;99.90
15113;DHT22;7657;50.140;7.076;2023-06-19T12:39:04;26.10;99.90
15113;DHT22;7657;50.140;7.076;2023-06-19T12:41:41;26.10;99.90
15113;DHT22;7657;50.140;7.076;2023-06-19T12:44:08;26.30;99.90
15113;DHT22;7657;50.140;7.076;2023-06-19T12:46:35;26.50;99.90
15113;DHT22;7657;50.140;7.076;2023-06-19T12:49:02;26.60;99.90
15113;DHT22;7657;50.140;7.076;2023-06-19T12:51:29;26.60;99.90
15113;DHT22;7657;50.140;7.076;2023-06-19T12:53:56;26.60;99.90
15113;DHT22;7657;50.140;7.076;2023-06-19T12:56:23;26.60;99.90
15113;DHT22;7657;50.140;7.076;2023-06-19T12:58:51;26.40;99.90
15113;DHT22;7657;50.140;7.076;2023-06-19T13:01:18;26.20;99.90
15113;DHT22;7657;50.140;7.076;2023-06-19T13:03:45;26.30;99.90
15113;DHT22;7657;50.140;7.076;2023-06-19T13:06:12;26.30;99.90
15113;DHT22;7657;50.140;7.076;2023-06-19T13:08:38;26.30;99.90
15113;DHT22;7657;50.140;7.076;2023-06-19T13:11:05;26.20;99.90
15113;DHT22;7657;50.140;7.076;2023-06-19T13:13:32;26.10;99.90
15113;DHT22;7657;50.140;7.076;2023-06-19T13:16:00;26.00;99.90
15113;DHT22;7657;50.140;7.076;2023-06-19T13:18:27;26.10;99.90
15113;DHT22;7657;50.140;7.076;2023-06-19T13:20:55;26.10;99.90
15113;DHT22;7657;50.140;7.076;2023-06-19T13:23:22;26.10;99.90
15113;DHT22;7657;50.140;7.076;2023-06-19T13:25:49;26.10;99.90
15113;DHT22;7657;50.140;7.076;2023-06-19T13:28:15;26.00;99.90
15113;DHT22;7657;50.140;7.076;2023-06-19T13:30:42;26.10;99.90
15113;DHT22;7657;50.140;7.076;2023-06-19T13:33:11;26.10;99.90
15113;DHT22;7657;50.140;7.076;2023-06-19T13:35:38;26.10;99.90
15113;DHT22;7657;50.140;7.076;2023-06-19T13:38:04;26.30;99.90
15113;DHT22;7657;50.140;7.076;2023-06-19T13:40:32;26.40;99.90
15113;DHT22;7657;50.140;7.076;2023-06-19T13:42:58;26.80;99.90
15113;DHT22;7657;50.140;7.076;2023-06-19T13:45:28;27.00;99.90
15113;DHT22;7657;50.140;7.076;2023-06-19T13:47:56;27.30;99.90
15113;DHT22;7657;50.140;7.076;2023-06-19T13:50:24;27.30;99.90
15113;DHT22;7657;50.140;7.076;2023-06-19T13:52:51;27.50;99.90
15113;DHT22;7657;50.140;7.076;2023-06-19T13:55:19;27.80;99.90
15113;DHT22;7657;50.140;7.076;2023-06-19T13:57:46;28.00;99.90
15113;DHT22;7657;50.140;7.076;2023-06-19T14:00:13;28.20;99.90
15113;DHT22;7657;50.140;7.076;2023-06-19T14:02:40;28.30;99.90
15113;DHT22;7657;50.140;7.076;2023-06-19T14:05:08;28.40;99.90
15113;DHT22;7657;50.140;7.076;2023-06-19T14:07:37;28.60;99.90
15113;DHT22;7657;50.140;7.076;2023-06-19T14:10:05;28.60;99.90
15113;DHT22;7657;50.140;7.076;2023-06-19T14:12:32;28.40;99.90
15113;DHT22;7657;50.140;7.076;2023-06-19T14:14:59;28.40;99.90
15113;DHT22;7657;50.140;7.076;2023-06-19T14:17:26;28.30;99.90
15113;DHT22;7657;50.140;7.076;2023-06-19T14:19:53;28.30;99.90
15113;DHT22;7657;50.140;7.076;2023-06-19T14:22:21;28.30;99.90
15113;DHT22;7657;50.140;7.076;2023-06-19T14:24:49;28.40;99.90
15113;DHT22;7657;50.140;7.076;2023-06-19T14:27:16;28.40;99.90
15113;DHT22;7657;50.140;7.076;2023-06-19T14:29:43;28.40;99.90
15113;DHT22;7657;50.140;7.076;2023-06-19T14:32:10;28.40;99.90
15113;DHT22;7657;50.140;7.076;2023-06-19T14:34:37;28.60;99.90
15113;DHT22;7657;50.140;7.076;2023-06-19T14:37:04;28.70;99.90
15113;DHT22;7657;50.140;7.076;2023-06-19T14:39:31;28.60;99.90
15113;DHT22;7657;50.140;7.076;2023-06-19T14:42:00;28.80;99.90
15113;DHT22;7657;50.140;7.076;2023-06-19T14:44:27;28.80;99.90
15113;DHT22;7657;50.140;7.076;2023-06-19T14:46:53;29.00;99.90
15113;DHT22;7657;50.140;7.076;2023-06-19T14:49:21;29.10;99.90
15113;DHT22;7657;50.140;7.076;2023-06-19T14:51:48;29.10;99.90
15113;DHT22;7657;50.140;7.076;2023-06-19T14:54:14;28.90;99.90
15113;DHT22;7657;50.140;7.076;2023-06-19T14:56:43;28.90;99.90
15113;DHT22;7657;50.140;7.076;2023-06-19T14:59:14;28.90;99.90
15113;DHT22;7657;50.140;7.076;2023-06-19T15:01:42;28.90;99.90
15113;DHT22;7657;50.140;7.076;2023-06-19T15:04:09;28.90;99.90
15113;DHT22;7657;50.140;7.076;2023-06-19T15:06:36;28.80;99.90
15113;DHT22;7657;50.140;7.076;2023-06-19T15:09:03;28.70;99.90
15113;DHT22;7657;50.140;7.076;2023-06-19T15:11:29;28.60;99.90
15113;DHT22;7657;50.140;7.076;2023-06-19T15:13:56;28.70;99.90
15113;DHT22;7657;50.140;7.076;2023-06-19T15:16:24;28.80;99.90
15113;DHT22;7657;50.140;7.076;2023-06-19T15:18:52;28.80;99.90
15113;DHT22;7657;50.140;7.076;2023-06-19T15:21:19;28.90;99.90
15113;DHT22;7657;50.140;7.076;2023-06-19T15:23:46;29.20;99.90
15113;DHT22;7657;50.140;7.076;2023-06-19T15:26:14;29.60;99.90
15113;DHT22;7657;50.140;7.076;2023-06-19T15:28:41;29.80;99.90
15113;DHT22;7657;50.140;7.076;2023-06-19T15:31:09;30.10;99.80
15113;DHT22;7657;50.140;7.076;2023-06-19T15:33:37;30.30;98.90
15113;DHT22;7657;50.140;7.076;2023-06-19T15:36:05;30.40;98.80
15113;DHT22;7657;50.140;7.076;2023-06-19T15:38:33;30.60;98.50
15113;DHT22;7657;50.140;7.076;2023-06-19T15:41:00;30.90;98.30
15113;DHT22;7657;50.140;7.076;2023-06-19T15:43:27;31.30;98.30
15113;DHT22;7657;50.140;7.076;2023-06-19T15:45:56;31.40;97.40
15113;DHT22;7657;50.140;7.076;2023-06-19T15:48:23;31.70;96.70